sensor_id;sensor_type;location;lat;lon;timestamp;P1;durP1;ratioP1;P2;durP2;ratioP2
40701;SDS011;26387;50.114;8.662;2022-07-23T00:00:29;11.95;;;6.82;;
40701;SDS011;26387;50.114;8.662;2022-07-23T00:02:55;9.45;;;6.82;;
40701;SDS011;26387;50.114;8.662;2022-07-23T00:05:20;11.25;;;7.20;;
40701;SDS011;26387;50.114;8.662;2022-07-23T00:07:46;10.00;;;6.45;;
40701;SDS011;26387;50.114;8.662;2022-07-23T00:10:12;11.57;;;7.18;;
40701;SDS011;26387;50.114;8.662;2022-07-23T00:12:38;10.85;;;7.13;;
40701;SDS011;26387;50.114;8.662;2022-07-23T00:15:04;9.02;;;6.68;;
40701;SDS011;26387;50.114;8.662;2022-07-23T00:17:30;12.43;;;7.00;;
40701;SDS011;26387;50.114;8.662;2022-07-23T00:19:56;12.20;;;7.25;;
40701;SDS011;26387;50.114;8.662;2022-07-23T00:22:21;8.20;;;6.88;;
40701;SDS011;26387;50.114;8.662;2022-07-23T00:24:47;9.55;;;6.93;;
40701;SDS011;26387;50.114;8.662;2022-07-23T00:27:12;11.40;;;7.20;;
40701;SDS011;26387;50.114;8.662;2022-07-23T00:29:38;11.05;;;7.20;;
40701;SDS011;26387;50.114;8.662;2022-07-23T00:32:04;8.82;;;7.00;;
40701;SDS011;26387;50.114;8.662;2022-07-23T00:34:30;12.40;;;6.82;;
40701;SDS011;26387;50.114;8.662;2022-07-23T00:36:55;9.02;;;7.20;;
40701;SDS011;26387;50.114;8.662;2022-07-23T00:39:21;9.77;;;6.35;;
40701;SDS011;26387;50.114;8.662;2022-07-23T00:41:47;13.18;;;6.93;;
40701;SDS011;26387;50.114;8.662;2022-07-23T00:44:14;8.95;;;6.95;;
40701;SDS011;26387;50.114;8.662;2022-07-23T00:46:44;9.70;;;7.22;;
40701;SDS011;26387;50.114;8.662;2022-07-23T00:49:11;11.18;;;7.13;;
40701;SDS011;26387;50.114;8.662;2022-07-23T00:51:37;14.25;;;7.82;;
40701;SDS011;26387;50.114;8.662;2022-07-23T00:54:03;13.95;;;7.28;;
40701;SDS011;26387;50.114;8.662;2022-07-23T00:56:29;12.23;;;7.03;;
40701;SDS011;26387;50.114;8.662;2022-07-23T00:58:55;10.68;;;6.93;;
40701;SDS011;26387;50.114;8.662;2022-07-23T01:01:22;11.63;;;7.20;;
40701;SDS011;26387;50.114;8.662;2022-07-23T01:03:47;10.93;;;7.38;;
40701;SDS011;26387;50.114;8.662;2022-07-23T01:06:13;11.02;;;7.63;;
40701;SDS011;26387;50.114;8.662;2022-07-23T01:08:39;11.43;;;7.30;;
40701;SDS011;26387;50.114;8.662;2022-07-23T01:11:06;11.70;;;7.40;;
40701;SDS011;26387;50.114;8.662;2022-07-23T01:13:32;9.68;;;6.95;;
40701;SDS011;26387;50.114;8.662;2022-07-23T01:15:57;10.80;;;7.25;;
40701;SDS011;26387;50.114;8.662;2022-07-23T01:18:23;13.30;;;7.47;;
40701;SDS011;26387;50.114;8.662;2022-07-23T01:20:48;12.43;;;7.13;;
40701;SDS011;26387;50.114;8.662;2022-07-23T01:23:14;8.55;;;6.53;;
40701;SDS011;26387;50.114;8.662;2022-07-23T01:25:51;9.52;;;7.18;;
40701;SDS011;26387;50.114;8.662;2022-07-23T01:28:17;12.00;;;6.93;;
40701;SDS011;26387;50.114;8.662;2022-07-23T01:30:43;10.07;;;6.82;;
40701;SDS011;26387;50.114;8.662;2022-07-23T01:33:09;13.57;;;7.47;;
40701;SDS011;26387;50.114;8.662;2022-07-23T01:35:35;15.38;;;7.18;;
40701;SDS011;26387;50.114;8.662;2022-07-23T01:38:00;8.82;;;7.10;;
40701;SDS011;26387;50.114;8.662;2022-07-23T01:40:26;9.57;;;7.30;;
40701;SDS011;26387;50.114;8.662;2022-07-23T01:42:52;11.75;;;7.55;;
40701;SDS011;26387;50.114;8.662;2022-07-23T01:45:17;10.68;;;7.18;;
40701;SDS011;26387;50.114;8.662;2022-07-23T01:47:43;10.05;;;7.10;;
40701;SDS011;26387;50.114;8.662;2022-07-23T01:50:09;10.02;;;7.20;;
40701;SDS011;26387;50.114;8.662;2022-07-23T01:52:34;13.55;;;7.43;;
40701;SDS011;26387;50.114;8.662;2022-07-23T01:55:00;12.40;;;7.63;;
40701;SDS011;26387;50.114;8.662;2022-07-23T01:57:26;12.63;;;7.78;;
40701;SDS011;26387;50.114;8.662;2022-07-23T01:59:51;11.20;;;7.50;;
40701;SDS011;26387;50.114;8.662;2022-07-23T02:02:17;14.45;;;8.02;;
40701;SDS011;26387;50.114;8.662;2022-07-23T02:04:42;13.73;;;8.07;;
40701;SDS011;26387;50.114;8.662;2022-07-23T02:07:08;12.23;;;7.53;;
40701;SDS011;26387;50.114;8.662;2022-07-23T02:09:33;10.32;;;6.95;;
40701;SDS011;26387;50.114;8.662;2022-07-23T02:11:59;10.23;;;7.50;;
40701;SDS011;26387;50.114;8.662;2022-07-23T02:14:25;13.10;;;7.90;;
40701;SDS011;26387;50.114;8.662;2022-07-23T02:16:51;13.50;;;7.15;;
40701;SDS011;26387;50.114;8.662;2022-07-23T02:19:17;10.10;;;7.55;;
40701;SDS011;26387;50.114;8.662;2022-07-23T02:21:43;13.93;;;7.60;;
40701;SDS011;26387;50.114;8.662;2022-07-23T02:24:09;10.95;;;7.45;;
40701;SDS011;26387;50.114;8.662;2022-07-23T02:26:34;10.68;;;7.80;;
40701;SDS011;26387;50.114;8.662;2022-07-23T02:29:01;9.70;;;7.28;;
40701;SDS011;26387;50.114;8.662;2022-07-23T02:31:28;9.10;;;6.97;;
40701;SDS011;26387;50.114;8.662;2022-07-23T02:33:54;13.02;;;7.40;;
40701;SDS011;26387;50.114;8.662;2022-07-23T02:36:20;15.30;;;7.85;;
40701;SDS011;26387;50.114;8.662;2022-07-23T02:38:46;13.60;;;7.95;;
40701;SDS011;26387;50.114;8.662;2022-07-23T02:41:12;10.90;;;7.82;;
40701;SDS011;26387;50.114;8.662;2022-07-23T02:43:37;11.32;;;7.63;;
40701;SDS011;26387;50.114;8.662;2022-07-23T02:46:03;10.98;;;7.22;;
40701;SDS011;26387;50.114;8.662;2022-07-23T02:48:29;11.57;;;7.07;;
40701;SDS011;26387;50.114;8.662;2022-07-23T02:50:55;8.95;;;7.03;;
40701;SDS011;26387;50.114;8.662;2022-07-23T02:53:21;11.45;;;7.53;;
40701;SDS011;26387;50.114;8.662;2022-07-23T02:55:50;8.85;;;7.47;;
40701;SDS011;26387;50.114;8.662;2022-07-23T02:58:15;13.15;;;7.80;;
40701;SDS011;26387;50.114;8.662;2022-07-23T03:00:41;10.05;;;7.18;;
40701;SDS011;26387;50.114;8.662;2022-07-23T03:03:06;10.57;;;7.40;;
40701;SDS011;26387;50.114;8.662;2022-07-23T03:05:33;10.15;;;7.35;;
40701;SDS011;26387;50.114;8.662;2022-07-23T03:07:59;10.77;;;7.05;;
40701;SDS011;26387;50.114;8.662;2022-07-23T03:10:24;10.98;;;7.43;;
40701;SDS011;26387;50.114;8.662;2022-07-23T03:12:50;11.57;;;6.85;;
40701;SDS011;26387;50.114;8.662;2022-07-23T03:15:16;10.00;;;7.35;;
40701;SDS011;26387;50.114;8.662;2022-07-23T03:17:41;8.18;;;6.82;;
40701;SDS011;26387;50.114;8.662;2022-07-23T03:20:07;11.07;;;7.63;;
40701;SDS011;26387;50.114;8.662;2022-07-23T03:22:33;14.07;;;7.32;;
40701;SDS011;26387;50.114;8.662;2022-07-23T03:24:59;10.50;;;7.40;;
40701;SDS011;26387;50.114;8.662;2022-07-23T03:27:25;13.43;;;7.95;;
40701;SDS011;26387;50.114;8.662;2022-07-23T03:29:53;9.77;;;6.95;;
40701;SDS011;26387;50.114;8.662;2022-07-23T03:32:20;10.20;;;7.60;;
40701;SDS011;26387;50.114;8.662;2022-07-23T03:34:46;11.25;;;7.25;;
40701;SDS011;26387;50.114;8.662;2022-07-23T03:37:12;11.77;;;8.35;;
40701;SDS011;26387;50.114;8.662;2022-07-23T03:39:37;10.32;;;8.10;;
40701;SDS011;26387;50.114;8.662;2022-07-23T03:42:03;8.85;;;7.50;;
40701;SDS011;26387;50.114;8.662;2022-07-23T03:44:29;11.43;;;7.95;;
40701;SDS011;26387;50.114;8.662;2022-07-23T03:46:54;13.13;;;8.07;;
40701;SDS011;26387;50.114;8.662;2022-07-23T03:49:20;13.02;;;7.65;;
40701;SDS011;26387;50.114;8.662;2022-07-23T03:51:46;9.23;;;7.85;;
40701;SDS011;26387;50.114;8.662;2022-07-23T03:54:11;11.77;;;7.97;;
40701;SDS011;26387;50.114;8.662;2022-07-23T03:56:37;11.68;;;7.20;;
40701;SDS011;26387;50.114;8.662;2022-07-23T03:59:03;10.68;;;8.10;;
40701;SDS011;26387;50.114;8.662;2022-07-23T04:01:29;13.15;;;8.20;;
40701;SDS011;26387;50.114;8.662;2022-07-23T04:03:54;14.57;;;8.52;;
40701;SDS011;26387;50.114;8.662;2022-07-23T04:06:20;12.23;;;7.93;;
40701;SDS011;26387;50.114;8.662;2022-07-23T04:08:45;10.63;;;8.70;;
40701;SDS011;26387;50.114;8.662;2022-07-23T04:11:11;10.43;;;8.43;;
40701;SDS011;26387;50.114;8.662;2022-07-23T04:13:37;14.05;;;8.32;;
40701;SDS011;26387;50.114;8.662;2022-07-23T04:16:02;12.23;;;9.00;;
40701;SDS011;26387;50.114;8.662;2022-07-23T04:18:29;11.82;;;9.13;;
40701;SDS011;26387;50.114;8.662;2022-07-23T04:20:54;14.15;;;9.15;;
40701;SDS011;26387;50.114;8.662;2022-07-23T04:23:20;12.25;;;9.18;;
40701;SDS011;26387;50.114;8.662;2022-07-23T04:25:46;13.70;;;9.52;;
40701;SDS011;26387;50.114;8.662;2022-07-23T04:28:11;14.73;;;8.82;;
40701;SDS011;26387;50.114;8.662;2022-07-23T04:30:37;13.15;;;9.52;;
40701;SDS011;26387;50.114;8.662;2022-07-23T04:33:03;16.30;;;9.55;;
40701;SDS011;26387;50.114;8.662;2022-07-23T04:35:31;12.60;;;9.23;;
40701;SDS011;26387;50.114;8.662;2022-07-23T04:37:57;13.73;;;9.30;;
40701;SDS011;26387;50.114;8.662;2022-07-23T04:40:23;12.55;;;9.23;;
40701;SDS011;26387;50.114;8.662;2022-07-23T04:42:48;13.18;;;9.05;;
40701;SDS011;26387;50.114;8.662;2022-07-23T04:45:14;13.68;;;9.00;;
40701;SDS011;26387;50.114;8.662;2022-07-23T04:47:40;12.63;;;8.40;;
40701;SDS011;26387;50.114;8.662;2022-07-23T04:50:05;12.20;;;9.23;;
40701;SDS011;26387;50.114;8.662;2022-07-23T04:52:31;15.48;;;9.23;;
40701;SDS011;26387;50.114;8.662;2022-07-23T04:54:57;14.82;;;9.32;;
40701;SDS011;26387;50.114;8.662;2022-07-23T04:57:22;13.63;;;8.52;;
40701;SDS011;26387;50.114;8.662;2022-07-23T04:59:48;14.00;;;9.32;;
40701;SDS011;26387;50.114;8.662;2022-07-23T05:02:13;16.73;;;9.02;;
40701;SDS011;26387;50.114;8.662;2022-07-23T05:04:39;14.15;;;9.30;;
40701;SDS011;26387;50.114;8.662;2022-07-23T05:07:04;14.35;;;8.80;;
40701;SDS011;26387;50.114;8.662;2022-07-23T05:09:30;14.25;;;9.88;;
40701;SDS011;26387;50.114;8.662;2022-07-23T05:11:55;12.20;;;9.20;;
40701;SDS011;26387;50.114;8.662;2022-07-23T05:14:21;12.57;;;8.95;;
40701;SDS011;26387;50.114;8.662;2022-07-23T05:16:47;11.98;;;8.88;;
40701;SDS011;26387;50.114;8.662;2022-07-23T05:19:12;13.80;;;9.23;;
40701;SDS011;26387;50.114;8.662;2022-07-23T05:21:38;13.55;;;9.20;;
40701;SDS011;26387;50.114;8.662;2022-07-23T05:24:04;15.35;;;9.05;;
40701;SDS011;26387;50.114;8.662;2022-07-23T05:26:30;13.30;;;9.30;;
40701;SDS011;26387;50.114;8.662;2022-07-23T05:28:56;12.05;;;9.45;;
40701;SDS011;26387;50.114;8.662;2022-07-23T05:31:21;15.38;;;8.52;;
40701;SDS011;26387;50.114;8.662;2022-07-23T05:33:47;13.95;;;8.95;;
40701;SDS011;26387;50.114;8.662;2022-07-23T05:36:12;12.20;;;8.80;;
40701;SDS011;26387;50.114;8.662;2022-07-23T05:38:38;12.30;;;8.77;;
40701;SDS011;26387;50.114;8.662;2022-07-23T05:41:04;12.88;;;8.95;;
40701;SDS011;26387;50.114;8.662;2022-07-23T05:43:30;15.18;;;9.52;;
40701;SDS011;26387;50.114;8.662;2022-07-23T05:45:55;12.95;;;8.88;;
40701;SDS011;26387;50.114;8.662;2022-07-23T05:48:21;12.32;;;8.52;;
40701;SDS011;26387;50.114;8.662;2022-07-23T05:50:47;12.80;;;9.20;;
40701;SDS011;26387;50.114;8.662;2022-07-23T05:53:12;14.23;;;8.70;;
40701;SDS011;26387;50.114;8.662;2022-07-23T05:55:38;16.33;;;9.00;;
40701;SDS011;26387;50.114;8.662;2022-07-23T05:58:04;11.95;;;8.90;;
40701;SDS011;26387;50.114;8.662;2022-07-23T06:00:30;13.70;;;8.73;;
40701;SDS011;26387;50.114;8.662;2022-07-23T06:02:56;12.75;;;9.23;;
40701;SDS011;26387;50.114;8.662;2022-07-23T06:05:22;11.57;;;9.10;;
40701;SDS011;26387;50.114;8.662;2022-07-23T06:07:48;14.48;;;8.45;;
40701;SDS011;26387;50.114;8.662;2022-07-23T06:10:14;12.65;;;9.07;;
40701;SDS011;26387;50.114;8.662;2022-07-23T06:12:40;13.88;;;9.15;;
40701;SDS011;26387;50.114;8.662;2022-07-23T06:15:06;14.38;;;8.85;;
40701;SDS011;26387;50.114;8.662;2022-07-23T06:17:32;12.95;;;8.75;;
40701;SDS011;26387;50.114;8.662;2022-07-23T06:19:58;13.52;;;8.95;;
40701;SDS011;26387;50.114;8.662;2022-07-23T06:22:24;12.45;;;8.90;;
40701;SDS011;26387;50.114;8.662;2022-07-23T06:24:50;12.90;;;8.52;;
40701;SDS011;26387;50.114;8.662;2022-07-23T06:27:18;11.95;;;8.05;;
40701;SDS011;26387;50.114;8.662;2022-07-23T06:29:44;15.02;;;8.60;;
40701;SDS011;26387;50.114;8.662;2022-07-23T06:32:10;15.02;;;8.35;;
40701;SDS011;26387;50.114;8.662;2022-07-23T06:34:35;15.35;;;9.07;;
40701;SDS011;26387;50.114;8.662;2022-07-23T06:37:01;12.50;;;8.10;;
40701;SDS011;26387;50.114;8.662;2022-07-23T06:39:27;14.20;;;8.68;;
40701;SDS011;26387;50.114;8.662;2022-07-23T06:41:52;11.02;;;8.35;;
40701;SDS011;26387;50.114;8.662;2022-07-23T06:44:18;11.98;;;8.70;;
40701;SDS011;26387;50.114;8.662;2022-07-23T06:46:44;11.07;;;7.78;;
40701;SDS011;26387;50.114;8.662;2022-07-23T06:49:09;10.63;;;7.68;;
40701;SDS011;26387;50.114;8.662;2022-07-23T06:51:35;12.70;;;7.55;;
40701;SDS011;26387;50.114;8.662;2022-07-23T06:54:01;11.07;;;7.63;;
40701;SDS011;26387;50.114;8.662;2022-07-23T06:56:27;11.38;;;6.80;;
40701;SDS011;26387;50.114;8.662;2022-07-23T06:58:53;13.82;;;6.35;;
40701;SDS011;26387;50.114;8.662;2022-07-23T07:01:18;11.35;;;6.40;;
40701;SDS011;26387;50.114;8.662;2022-07-23T07:03:44;12.23;;;7.25;;
40701;SDS011;26387;50.114;8.662;2022-07-23T07:06:10;12.23;;;6.57;;
40701;SDS011;26387;50.114;8.662;2022-07-23T07:08:36;11.90;;;6.97;;
40701;SDS011;26387;50.114;8.662;2022-07-23T07:11:01;10.48;;;7.07;;
40701;SDS011;26387;50.114;8.662;2022-07-23T07:13:27;11.35;;;7.00;;
40701;SDS011;26387;50.114;8.662;2022-07-23T07:15:53;10.90;;;6.30;;
40701;SDS011;26387;50.114;8.662;2022-07-23T07:18:18;9.48;;;6.10;;
40701;SDS011;26387;50.114;8.662;2022-07-23T07:20:44;10.48;;;6.90;;
40701;SDS011;26387;50.114;8.662;2022-07-23T07:23:09;8.60;;;6.07;;
40701;SDS011;26387;50.114;8.662;2022-07-23T07:25:35;13.15;;;7.25;;
40701;SDS011;26387;50.114;8.662;2022-07-23T07:28:02;10.02;;;6.40;;
40701;SDS011;26387;50.114;8.662;2022-07-23T07:30:27;8.80;;;6.40;;
40701;SDS011;26387;50.114;8.662;2022-07-23T07:32:53;9.77;;;7.00;;
40701;SDS011;26387;50.114;8.662;2022-07-23T07:35:19;10.77;;;7.22;;
40701;SDS011;26387;50.114;8.662;2022-07-23T07:37:44;13.35;;;7.07;;
40701;SDS011;26387;50.114;8.662;2022-07-23T07:40:10;9.07;;;6.40;;
40701;SDS011;26387;50.114;8.662;2022-07-23T07:42:43;11.27;;;6.88;;
40701;SDS011;26387;50.114;8.662;2022-07-23T07:45:13;8.50;;;5.93;;
40701;SDS011;26387;50.114;8.662;2022-07-23T07:47:38;9.80;;;6.10;;
40701;SDS011;26387;50.114;8.662;2022-07-23T07:50:04;10.32;;;6.40;;
40701;SDS011;26387;50.114;8.662;2022-07-23T07:52:30;10.70;;;6.60;;
40701;SDS011;26387;50.114;8.662;2022-07-23T07:54:55;8.35;;;6.22;;
40701;SDS011;26387;50.114;8.662;2022-07-23T07:57:21;8.93;;;5.75;;
40701;SDS011;26387;50.114;8.662;2022-07-23T07:59:47;9.30;;;5.85;;
40701;SDS011;26387;50.114;8.662;2022-07-23T08:02:12;9.05;;;5.97;;
40701;SDS011;26387;50.114;8.662;2022-07-23T08:04:38;9.38;;;6.25;;
40701;SDS011;26387;50.114;8.662;2022-07-23T08:07:03;8.73;;;5.70;;
40701;SDS011;26387;50.114;8.662;2022-07-23T08:09:29;9.05;;;6.10;;
40701;SDS011;26387;50.114;8.662;2022-07-23T08:11:54;10.05;;;6.70;;
40701;SDS011;26387;50.114;8.662;2022-07-23T08:14:20;9.70;;;6.10;;
40701;SDS011;26387;50.114;8.662;2022-07-23T08:16:46;7.93;;;5.97;;
40701;SDS011;26387;50.114;8.662;2022-07-23T08:19:11;7.85;;;5.85;;
40701;SDS011;26387;50.114;8.662;2022-07-23T08:21:37;8.63;;;5.90;;
40701;SDS011;26387;50.114;8.662;2022-07-23T08:24:02;8.60;;;5.40;;
40701;SDS011;26387;50.114;8.662;2022-07-23T08:26:28;7.82;;;5.45;;
40701;SDS011;26387;50.114;8.662;2022-07-23T08:28:54;10.88;;;6.15;;
40701;SDS011;26387;50.114;8.662;2022-07-23T08:31:19;8.30;;;5.40;;
40701;SDS011;26387;50.114;8.662;2022-07-23T08:33:45;6.28;;;5.50;;
40701;SDS011;26387;50.114;8.662;2022-07-23T08:36:10;9.23;;;6.07;;
40701;SDS011;26387;50.114;8.662;2022-07-23T08:38:36;10.32;;;5.97;;
40701;SDS011;26387;50.114;8.662;2022-07-23T08:41:01;8.00;;;5.68;;
40701;SDS011;26387;50.114;8.662;2022-07-23T08:43:30;9.20;;;5.80;;
40701;SDS011;26387;50.114;8.662;2022-07-23T08:45:59;11.98;;;6.25;;
40701;SDS011;26387;50.114;8.662;2022-07-23T08:48:26;7.85;;;5.75;;
40701;SDS011;26387;50.114;8.662;2022-07-23T08:50:57;9.40;;;5.60;;
40701;SDS011;26387;50.114;8.662;2022-07-23T08:53:26;10.10;;;6.00;;
40701;SDS011;26387;50.114;8.662;2022-07-23T08:55:56;6.70;;;5.78;;
40701;SDS011;26387;50.114;8.662;2022-07-23T08:58:23;8.00;;;5.47;;
40701;SDS011;26387;50.114;8.662;2022-07-23T09:00:49;9.77;;;5.78;;
40701;SDS011;26387;50.114;8.662;2022-07-23T09:03:16;9.32;;;5.55;;
40701;SDS011;26387;50.114;8.662;2022-07-23T09:05:43;8.77;;;5.82;;
40701;SDS011;26387;50.114;8.662;2022-07-23T09:08:10;5.93;;;5.13;;
40701;SDS011;26387;50.114;8.662;2022-07-23T09:18:39;8.57;;;5.82;;
40701;SDS011;26387;50.114;8.662;2022-07-23T09:21:28;9.25;;;5.88;;
40701;SDS011;26387;50.114;8.662;2022-07-23T09:24:10;7.90;;;5.95;;
40701;SDS011;26387;50.114;8.662;2022-07-23T09:31:49;7.03;;;5.32;;
40701;SDS011;26387;50.114;8.662;2022-07-23T09:34:25;8.63;;;6.10;;
40701;SDS011;26387;50.114;8.662;2022-07-23T09:36:53;9.90;;;5.60;;
40701;SDS011;26387;50.114;8.662;2022-07-23T09:39:28;10.02;;;5.53;;
40701;SDS011;26387;50.114;8.662;2022-07-23T09:41:56;7.30;;;5.53;;
40701;SDS011;26387;50.114;8.662;2022-07-23T09:44:22;9.55;;;5.40;;
40701;SDS011;26387;50.114;8.662;2022-07-23T09:46:48;7.05;;;5.50;;
40701;SDS011;26387;50.114;8.662;2022-07-23T09:49:19;10.18;;;5.75;;
40701;SDS011;26387;50.114;8.662;2022-07-23T09:54:27;8.52;;;5.75;;
40701;SDS011;26387;50.114;8.662;2022-07-23T09:56:56;6.93;;;6.18;;
40701;SDS011;26387;50.114;8.662;2022-07-23T09:59:24;10.13;;;5.85;;
40701;SDS011;26387;50.114;8.662;2022-07-23T10:04:22;8.80;;;5.70;;
40701;SDS011;26387;50.114;8.662;2022-07-23T10:06:53;7.68;;;5.90;;
40701;SDS011;26387;50.114;8.662;2022-07-23T10:09:22;7.35;;;5.82;;
40701;SDS011;26387;50.114;8.662;2022-07-23T10:11:51;9.63;;;6.38;;
40701;SDS011;26387;50.114;8.662;2022-07-23T10:14:20;7.95;;;5.68;;
40701;SDS011;26387;50.114;8.662;2022-07-23T10:16:46;7.10;;;5.18;;
40701;SDS011;26387;50.114;8.662;2022-07-23T10:19:13;7.95;;;5.63;;
40701;SDS011;26387;50.114;8.662;2022-07-23T10:21:45;10.35;;;5.80;;
40701;SDS011;26387;50.114;8.662;2022-07-23T10:24:23;9.35;;;5.75;;
40701;SDS011;26387;50.114;8.662;2022-07-23T10:30:26;6.57;;;5.28;;
40701;SDS011;26387;50.114;8.662;2022-07-23T10:38:13;8.23;;;6.38;;
40701;SDS011;26387;50.114;8.662;2022-07-23T10:41:02;8.23;;;6.15;;
40701;SDS011;26387;50.114;8.662;2022-07-23T10:43:29;10.00;;;5.50;;
40701;SDS011;26387;50.114;8.662;2022-07-23T10:45:57;7.65;;;5.75;;
40701;SDS011;26387;50.114;8.662;2022-07-23T10:49:22;6.65;;;5.50;;
40701;SDS011;26387;50.114;8.662;2022-07-23T10:52:31;10.43;;;5.85;;
40701;SDS011;26387;50.114;8.662;2022-07-23T10:54:53;9.73;;;6.03;;
40701;SDS011;26387;50.114;8.662;2022-07-23T10:57:21;8.60;;;6.05;;
40701;SDS011;26387;50.114;8.662;2022-07-23T11:02:49;9.15;;;5.97;;
40701;SDS011;26387;50.114;8.662;2022-07-23T11:05:17;7.78;;;5.93;;
40701;SDS011;26387;50.114;8.662;2022-07-23T11:10:35;8.90;;;5.70;;
40701;SDS011;26387;50.114;8.662;2022-07-23T11:31:57;9.82;;;6.20;;
40701;SDS011;26387;50.114;8.662;2022-07-23T11:34:30;7.88;;;6.00;;
40701;SDS011;26387;50.114;8.662;2022-07-23T11:36:56;10.13;;;6.05;;
40701;SDS011;26387;50.114;8.662;2022-07-23T11:39:22;7.97;;;5.63;;
40701;SDS011;26387;50.114;8.662;2022-07-23T11:41:51;9.63;;;6.28;;
40701;SDS011;26387;50.114;8.662;2022-07-23T11:44:30;7.25;;;5.50;;
40701;SDS011;26387;50.114;8.662;2022-07-23T11:47:07;11.73;;;6.68;;
40701;SDS011;26387;50.114;8.662;2022-07-23T11:49:34;12.55;;;9.23;;
40701;SDS011;26387;50.114;8.662;2022-07-23T11:54:30;8.10;;;6.75;;
40701;SDS011;26387;50.114;8.662;2022-07-23T11:56:59;9.77;;;7.43;;
40701;SDS011;26387;50.114;8.662;2022-07-23T11:59:32;11.52;;;6.93;;
40701;SDS011;26387;50.114;8.662;2022-07-23T12:02:01;10.75;;;6.45;;
40701;SDS011;26387;50.114;8.662;2022-07-23T12:09:52;8.30;;;6.07;;
40701;SDS011;26387;50.114;8.662;2022-07-23T12:12:18;7.22;;;6.10;;
40701;SDS011;26387;50.114;8.662;2022-07-23T12:15:02;8.98;;;6.38;;
40701;SDS011;26387;50.114;8.662;2022-07-23T12:17:29;10.63;;;5.72;;
40701;SDS011;26387;50.114;8.662;2022-07-23T12:19:59;6.47;;;5.55;;
40701;SDS011;26387;50.114;8.662;2022-07-23T12:22:33;7.20;;;6.28;;
40701;SDS011;26387;50.114;8.662;2022-07-23T12:25:05;9.43;;;5.95;;
40701;SDS011;26387;50.114;8.662;2022-07-23T12:27:33;7.47;;;6.22;;
40701;SDS011;26387;50.114;8.662;2022-07-23T12:30:14;7.03;;;5.65;;
40701;SDS011;26387;50.114;8.662;2022-07-23T12:32:52;7.13;;;5.65;;
40701;SDS011;26387;50.114;8.662;2022-07-23T12:35:19;14.23;;;7.63;;
40701;SDS011;26387;50.114;8.662;2022-07-23T12:37:46;11.55;;;6.07;;
40701;SDS011;26387;50.114;8.662;2022-07-23T12:40:30;6.47;;;5.80;;
40701;SDS011;26387;50.114;8.662;2022-07-23T12:42:58;7.15;;;5.93;;
40701;SDS011;26387;50.114;8.662;2022-07-23T12:45:26;6.68;;;5.88;;
40701;SDS011;26387;50.114;8.662;2022-07-23T12:48:00;7.47;;;6.07;;
40701;SDS011;26387;50.114;8.662;2022-07-23T12:53:06;8.63;;;5.50;;
40701;SDS011;26387;50.114;8.662;2022-07-23T12:55:32;5.68;;;5.13;;
40701;SDS011;26387;50.114;8.662;2022-07-23T12:58:04;10.35;;;5.75;;
40701;SDS011;26387;50.114;8.662;2022-07-23T13:00:56;7.45;;;5.55;;
40701;SDS011;26387;50.114;8.662;2022-07-23T13:03:24;8.57;;;5.40;;
40701;SDS011;26387;50.114;8.662;2022-07-23T13:05:52;5.20;;;4.70;;
40701;SDS011;26387;50.114;8.662;2022-07-23T13:08:18;6.20;;;5.40;;
40701;SDS011;26387;50.114;8.662;2022-07-23T13:10:44;6.00;;;5.25;;
40701;SDS011;26387;50.114;8.662;2022-07-23T13:13:13;6.03;;;4.85;;
40701;SDS011;26387;50.114;8.662;2022-07-23T13:15:40;10.18;;;5.35;;
40701;SDS011;26387;50.114;8.662;2022-07-23T13:18:05;8.43;;;5.95;;
40701;SDS011;26387;50.114;8.662;2022-07-23T13:20:31;6.70;;;5.90;;
40701;SDS011;26387;50.114;8.662;2022-07-23T13:22:58;6.63;;;5.63;;
40701;SDS011;26387;50.114;8.662;2022-07-23T13:25:24;8.32;;;5.70;;
40701;SDS011;26387;50.114;8.662;2022-07-23T13:27:50;6.35;;;5.75;;
40701;SDS011;26387;50.114;8.662;2022-07-23T13:30:16;6.07;;;5.50;;
40701;SDS011;26387;50.114;8.662;2022-07-23T13:32:42;6.85;;;5.22;;
40701;SDS011;26387;50.114;8.662;2022-07-23T13:35:08;7.82;;;5.43;;
40701;SDS011;26387;50.114;8.662;2022-07-23T13:37:34;6.38;;;5.03;;
40701;SDS011;26387;50.114;8.662;2022-07-23T13:40:00;6.55;;;5.47;;
40701;SDS011;26387;50.114;8.662;2022-07-23T13:42:25;8.75;;;6.30;;
40701;SDS011;26387;50.114;8.662;2022-07-23T13:44:51;7.65;;;5.15;;
40701;SDS011;26387;50.114;8.662;2022-07-23T13:47:17;7.55;;;5.68;;
40701;SDS011;26387;50.114;8.662;2022-07-23T13:49:42;6.40;;;5.60;;
40701;SDS011;26387;50.114;8.662;2022-07-23T13:52:08;7.88;;;5.43;;
40701;SDS011;26387;50.114;8.662;2022-07-23T13:54:33;7.50;;;6.05;;
40701;SDS011;26387;50.114;8.662;2022-07-23T13:56:59;9.20;;;5.45;;
40701;SDS011;26387;50.114;8.662;2022-07-23T13:59:25;8.20;;;5.68;;
40701;SDS011;26387;50.114;8.662;2022-07-23T14:01:50;6.53;;;5.28;;
40701;SDS011;26387;50.114;8.662;2022-07-23T14:04:16;8.88;;;5.55;;
40701;SDS011;26387;50.114;8.662;2022-07-23T14:06:42;7.47;;;5.90;;
40701;SDS011;26387;50.114;8.662;2022-07-23T14:09:07;7.05;;;5.70;;
40701;SDS011;26387;50.114;8.662;2022-07-23T14:11:33;9.18;;;5.55;;
40701;SDS011;26387;50.114;8.662;2022-07-23T14:13:58;6.05;;;5.03;;
40701;SDS011;26387;50.114;8.662;2022-07-23T14:16:25;7.50;;;5.72;;
40701;SDS011;26387;50.114;8.662;2022-07-23T14:18:51;8.32;;;5.70;;
40701;SDS011;26387;50.114;8.662;2022-07-23T14:21:17;7.45;;;5.20;;
40701;SDS011;26387;50.114;8.662;2022-07-23T14:23:42;6.00;;;5.40;;
40701;SDS011;26387;50.114;8.662;2022-07-23T14:26:08;6.47;;;5.15;;
40701;SDS011;26387;50.114;8.662;2022-07-23T14:28:33;5.45;;;4.95;;
40701;SDS011;26387;50.114;8.662;2022-07-23T14:30:59;4.95;;;4.55;;
40701;SDS011;26387;50.114;8.662;2022-07-23T14:33:25;7.13;;;5.18;;
40701;SDS011;26387;50.114;8.662;2022-07-23T14:35:51;7.13;;;5.03;;
40701;SDS011;26387;50.114;8.662;2022-07-23T14:38:16;7.63;;;4.72;;
40701;SDS011;26387;50.114;8.662;2022-07-23T14:40:42;6.82;;;5.20;;
40701;SDS011;26387;50.114;8.662;2022-07-23T14:43:08;5.80;;;4.80;;
40701;SDS011;26387;50.114;8.662;2022-07-23T14:45:34;5.65;;;4.40;;
40701;SDS011;26387;50.114;8.662;2022-07-23T14:48:00;5.00;;;4.60;;
40701;SDS011;26387;50.114;8.662;2022-07-23T14:50:27;5.43;;;4.85;;
40701;SDS011;26387;50.114;8.662;2022-07-23T14:52:53;6.53;;;4.40;;
40701;SDS011;26387;50.114;8.662;2022-07-23T14:55:19;5.03;;;4.53;;
40701;SDS011;26387;50.114;8.662;2022-07-23T14:57:45;5.10;;;4.70;;
40701;SDS011;26387;50.114;8.662;2022-07-23T15:00:11;5.20;;;4.80;;
40701;SDS011;26387;50.114;8.662;2022-07-23T15:02:37;5.60;;;5.07;;
40701;SDS011;26387;50.114;8.662;2022-07-23T15:05:03;6.22;;;5.63;;
40701;SDS011;26387;50.114;8.662;2022-07-23T15:07:29;6.13;;;5.25;;
40701;SDS011;26387;50.114;8.662;2022-07-23T15:09:55;6.32;;;5.72;;
40701;SDS011;26387;50.114;8.662;2022-07-23T15:12:21;5.75;;;5.25;;
40701;SDS011;26387;50.114;8.662;2022-07-23T15:14:47;6.15;;;5.65;;
40701;SDS011;26387;50.114;8.662;2022-07-23T15:17:13;6.38;;;5.88;;
40701;SDS011;26387;50.114;8.662;2022-07-23T15:19:38;6.65;;;5.95;;
40701;SDS011;26387;50.114;8.662;2022-07-23T15:22:04;6.10;;;5.60;;
40701;SDS011;26387;50.114;8.662;2022-07-23T15:24:30;6.43;;;5.80;;
40701;SDS011;26387;50.114;8.662;2022-07-23T15:26:56;6.20;;;5.60;;
40701;SDS011;26387;50.114;8.662;2022-07-23T15:29:22;5.78;;;5.10;;
40701;SDS011;26387;50.114;8.662;2022-07-23T15:31:48;5.40;;;4.90;;
40701;SDS011;26387;50.114;8.662;2022-07-23T15:34:14;5.78;;;5.28;;
40701;SDS011;26387;50.114;8.662;2022-07-23T15:36:39;5.78;;;4.85;;
40701;SDS011;26387;50.114;8.662;2022-07-23T15:39:05;5.82;;;5.03;;
40701;SDS011;26387;50.114;8.662;2022-07-23T15:41:31;5.18;;;4.70;;